sensor_id;sensor_type;location;lat;lon;timestamp;temperature;humidity
24636;DHT22;12772;49.794;10.024;2022-08-19T00:01:27;24.60;45.60
24636;DHT22;12772;49.794;10.024;2022-08-19T00:05:30;24.60;45.90
24636;DHT22;12772;49.794;10.024;2022-08-19T00:09:32;24.50;45.90
24636;DHT22;12772;49.794;10.024;2022-08-19T00:13:35;24.60;46.40
24636;DHT22;12772;49.794;10.024;2022-08-19T00:17:40;24.60;46.40
24636;DHT22;12772;49.794;10.024;2022-08-19T00:21:42;24.50;46.30
24636;DHT22;12772;49.794;10.024;2022-08-19T00:25:45;24.50;46.30
24636;DHT22;12772;49.794;10.024;2022-08-19T00:29:47;24.40;46.10
24636;DHT22;12772;49.794;10.024;2022-08-19T00:33:49;24.40;46.10
24636;DHT22;12772;49.794;10.024;2022-08-19T00:37:51;24.30;46.10
24636;DHT22;12772;49.794;10.024;2022-08-19T00:41:53;24.30;46.00
24636;DHT22;12772;49.794;10.024;2022-08-19T00:45:55;24.30;46.10
24636;DHT22;12772;49.794;10.024;2022-08-19T00:49:58;24.30;46.70
24636;DHT22;12772;49.794;10.024;2022-08-19T00:54:02;24.30;46.00
24636;DHT22;12772;49.794;10.024;2022-08-19T00:58:08;24.30;46.00
24636;DHT22;12772;49.794;10.024;2022-08-19T01:02:13;24.30;46.30
24636;DHT22;12772;49.794;10.024;2022-08-19T01:06:15;24.20;46.60
24636;DHT22;12772;49.794;10.024;2022-08-19T01:10:21;24.20;46.80
24636;DHT22;12772;49.794;10.024;2022-08-19T01:14:24;24.10;46.90
24636;DHT22;12772;49.794;10.024;2022-08-19T01:18:27;24.00;47.20
24636;DHT22;12772;49.794;10.024;2022-08-19T01:26:41;23.90;47.30
24636;DHT22;12772;49.794;10.024;2022-08-19T01:30:45;23.80;47.30
24636;DHT22;12772;49.794;10.024;2022-08-19T01:34:47;23.80;47.40
24636;DHT22;12772;49.794;10.024;2022-08-19T01:38:49;23.80;47.50
24636;DHT22;12772;49.794;10.024;2022-08-19T01:42:52;23.70;47.60
24636;DHT22;12772;49.794;10.024;2022-08-19T01:46:54;23.60;47.80
24636;DHT22;12772;49.794;10.024;2022-08-19T01:50:57;23.60;47.90
24636;DHT22;12772;49.794;10.024;2022-08-19T01:54:59;23.60;47.90
24636;DHT22;12772;49.794;10.024;2022-08-19T01:59:05;23.60;48.10
24636;DHT22;12772;49.794;10.024;2022-08-19T02:03:10;23.60;48.10
24636;DHT22;12772;49.794;10.024;2022-08-19T02:07:12;23.60;48.80
24636;DHT22;12772;49.794;10.024;2022-08-19T02:11:24;23.60;48.20
24636;DHT22;12772;49.794;10.024;2022-08-19T02:15:27;23.50;48.00
24636;DHT22;12772;49.794;10.024;2022-08-19T02:19:29;23.50;48.30
24636;DHT22;12772;49.794;10.024;2022-08-19T02:23:32;23.50;48.20
24636;DHT22;12772;49.794;10.024;2022-08-19T02:27:34;23.60;48.20
24636;DHT22;12772;49.794;10.024;2022-08-19T02:31:36;23.50;48.10
24636;DHT22;12772;49.794;10.024;2022-08-19T02:35:42;23.50;48.00
24636;DHT22;12772;49.794;10.024;2022-08-19T02:39:44;23.50;48.10
24636;DHT22;12772;49.794;10.024;2022-08-19T02:43:46;23.50;48.20
24636;DHT22;12772;49.794;10.024;2022-08-19T02:47:49;23.50;48.20
24636;DHT22;12772;49.794;10.024;2022-08-19T02:51:51;23.50;48.30
24636;DHT22;12772;49.794;10.024;2022-08-19T02:55:53;23.50;48.20
24636;DHT22;12772;49.794;10.024;2022-08-19T02:59:55;23.40;48.20
24636;DHT22;12772;49.794;10.024;2022-08-19T03:04:00;23.30;48.30
24636;DHT22;12772;49.794;10.024;2022-08-19T03:08:03;23.30;48.50
24636;DHT22;12772;49.794;10.024;2022-08-19T03:12:06;23.30;48.60
24636;DHT22;12772;49.794;10.024;2022-08-19T03:16:09;23.30;48.40
24636;DHT22;12772;49.794;10.024;2022-08-19T03:20:11;23.30;48.60
24636;DHT22;12772;49.794;10.024;2022-08-19T03:24:14;23.30;48.70
24636;DHT22;12772;49.794;10.024;2022-08-19T03:28:18;23.30;48.80
24636;DHT22;12772;49.794;10.024;2022-08-19T03:32:20;23.20;48.90
24636;DHT22;12772;49.794;10.024;2022-08-19T03:36:25;23.20;49.10
24636;DHT22;12772;49.794;10.024;2022-08-19T03:40:28;23.20;49.20
24636;DHT22;12772;49.794;10.024;2022-08-19T03:44:31;23.20;49.20
24636;DHT22;12772;49.794;10.024;2022-08-19T03:48:34;23.20;49.30
24636;DHT22;12772;49.794;10.024;2022-08-19T03:52:37;23.20;49.10
24636;DHT22;12772;49.794;10.024;2022-08-19T03:56:41;23.20;49.20
24636;DHT22;12772;49.794;10.024;2022-08-19T04:00:44;23.10;49.10
24636;DHT22;12772;49.794;10.024;2022-08-19T04:04:46;23.20;50.10
24636;DHT22;12772;49.794;10.024;2022-08-19T04:08:50;23.10;49.50
24636;DHT22;12772;49.794;10.024;2022-08-19T04:12:54;23.00;49.60
24636;DHT22;12772;49.794;10.024;2022-08-19T04:16:57;23.00;49.60
24636;DHT22;12772;49.794;10.024;2022-08-19T04:21:00;23.00;49.70
24636;DHT22;12772;49.794;10.024;2022-08-19T04:25:02;23.00;49.70
24636;DHT22;12772;49.794;10.024;2022-08-19T04:29:10;23.00;50.00
24636;DHT22;12772;49.794;10.024;2022-08-19T04:33:14;23.00;50.10
24636;DHT22;12772;49.794;10.024;2022-08-19T04:37:17;23.00;50.20
24636;DHT22;12772;49.794;10.024;2022-08-19T04:41:19;23.00;50.10
24636;DHT22;12772;49.794;10.024;2022-08-19T04:45:39;23.10;50.20
24636;DHT22;12772;49.794;10.024;2022-08-19T04:49:41;23.00;50.10
24636;DHT22;12772;49.794;10.024;2022-08-19T04:53:43;23.10;50.10
24636;DHT22;12772;49.794;10.024;2022-08-19T04:57:45;23.10;50.00
24636;DHT22;12772;49.794;10.024;2022-08-19T05:01:47;23.10;50.00
24636;DHT22;12772;49.794;10.024;2022-08-19T05:05:50;23.10;50.10
24636;DHT22;12772;49.794;10.024;2022-08-19T05:09:52;23.10;50.10
24636;DHT22;12772;49.794;10.024;2022-08-19T05:13:55;23.10;50.10
24636;DHT22;12772;49.794;10.024;2022-08-19T05:17:57;23.10;50.10
24636;DHT22;12772;49.794;10.024;2022-08-19T05:22:19;23.10;50.10
24636;DHT22;12772;49.794;10.024;2022-08-19T05:26:37;23.00;50.20
24636;DHT22;12772;49.794;10.024;2022-08-19T05:30:39;23.00;50.30
24636;DHT22;12772;49.794;10.024;2022-08-19T05:34:41;23.00;50.50
24636;DHT22;12772;49.794;10.024;2022-08-19T05:38:43;23.00;50.50
24636;DHT22;12772;49.794;10.024;2022-08-19T05:42:45;23.00;50.50
24636;DHT22;12772;49.794;10.024;2022-08-19T05:46:48;23.10;50.50
24636;DHT22;12772;49.794;10.024;2022-08-19T05:50:53;23.20;50.40
24636;DHT22;12772;49.794;10.024;2022-08-19T05:54:55;23.20;50.40
24636;DHT22;12772;49.794;10.024;2022-08-19T05:58:58;23.20;50.40
24636;DHT22;12772;49.794;10.024;2022-08-19T06:03:00;23.20;50.60
24636;DHT22;12772;49.794;10.024;2022-08-19T06:07:03;23.20;50.30
24636;DHT22;12772;49.794;10.024;2022-08-19T06:15:18;23.30;50.20
24636;DHT22;12772;49.794;10.024;2022-08-19T06:19:21;23.30;50.10
24636;DHT22;12772;49.794;10.024;2022-08-19T06:23:24;23.40;50.00
24636;DHT22;12772;49.794;10.024;2022-08-19T06:27:27;23.40;49.80
24636;DHT22;12772;49.794;10.024;2022-08-19T06:31:31;23.50;49.90
24636;DHT22;12772;49.794;10.024;2022-08-19T06:35:39;23.50;49.80
24636;DHT22;12772;49.794;10.024;2022-08-19T06:39:43;23.60;49.80
24636;DHT22;12772;49.794;10.024;2022-08-19T06:43:45;23.60;49.50
24636;DHT22;12772;49.794;10.024;2022-08-19T06:47:49;23.70;49.40
24636;DHT22;12772;49.794;10.024;2022-08-19T06:51:54;23.70;49.30
24636;DHT22;12772;49.794;10.024;2022-08-19T06:55:58;23.70;49.50
24636;DHT22;12772;49.794;10.024;2022-08-19T07:00:04;23.80;49.50
24636;DHT22;12772;49.794;10.024;2022-08-19T07:04:08;23.70;49.30
24636;DHT22;12772;49.794;10.024;2022-08-19T07:08:10;23.80;49.50
24636;DHT22;12772;49.794;10.024;2022-08-19T07:12:13;23.80;49.50
24636;DHT22;12772;49.794;10.024;2022-08-19T07:16:18;23.90;49.40
24636;DHT22;12772;49.794;10.024;2022-08-19T07:20:21;23.90;49.30
24636;DHT22;12772;49.794;10.024;2022-08-19T07:24:25;23.90;49.20
24636;DHT22;12772;49.794;10.024;2022-08-19T07:28:27;23.90;49.20
24636;DHT22;12772;49.794;10.024;2022-08-19T07:32:32;24.00;49.20
24636;DHT22;12772;49.794;10.024;2022-08-19T07:36:37;24.10;49.20
24636;DHT22;12772;49.794;10.024;2022-08-19T07:40:39;24.20;49.00
24636;DHT22;12772;49.794;10.024;2022-08-19T07:44:42;24.20;48.90
24636;DHT22;12772;49.794;10.024;2022-08-19T07:48:44;24.30;48.90
24636;DHT22;12772;49.794;10.024;2022-08-19T07:52:48;24.40;48.80
24636;DHT22;12772;49.794;10.024;2022-08-19T07:56:50;24.50;48.50
24636;DHT22;12772;49.794;10.024;2022-08-19T08:00:53;24.60;48.30
24636;DHT22;12772;49.794;10.024;2022-08-19T08:04:57;24.70;48.20
24636;DHT22;12772;49.794;10.024;2022-08-19T08:09:21;24.90;47.80
24636;DHT22;12772;49.794;10.024;2022-08-19T08:13:24;24.90;46.90
24636;DHT22;12772;49.794;10.024;2022-08-19T08:17:28;25.00;46.80
24636;DHT22;12772;49.794;10.024;2022-08-19T08:21:31;25.00;46.80
24636;DHT22;12772;49.794;10.024;2022-08-19T08:25:34;25.00;46.90
24636;DHT22;12772;49.794;10.024;2022-08-19T08:29:37;25.10;46.90
24636;DHT22;12772;49.794;10.024;2022-08-19T08:33:40;25.20;47.00
24636;DHT22;12772;49.794;10.024;2022-08-19T08:37:44;25.20;47.00
24636;DHT22;12772;49.794;10.024;2022-08-19T08:42:07;25.30;47.10
24636;DHT22;12772;49.794;10.024;2022-08-19T08:50:50;25.30;47.10
24636;DHT22;12772;49.794;10.024;2022-08-19T08:54:57;25.40;47.20
24636;DHT22;12772;49.794;10.024;2022-08-19T08:59:07;25.30;47.10
24636;DHT22;12772;49.794;10.024;2022-08-19T09:03:24;25.40;47.20
24636;DHT22;12772;49.794;10.024;2022-08-19T09:07:43;25.50;47.20
24636;DHT22;12772;49.794;10.024;2022-08-19T09:16:14;25.40;46.60
24636;DHT22;12772;49.794;10.024;2022-08-19T09:20:22;25.50;46.70
24636;DHT22;12772;49.794;10.024;2022-08-19T09:24:25;25.50;46.40
24636;DHT22;12772;49.794;10.024;2022-08-19T09:28:27;25.50;46.30
24636;DHT22;12772;49.794;10.024;2022-08-19T09:32:30;25.50;46.60
24636;DHT22;12772;49.794;10.024;2022-08-19T09:36:32;25.50;46.50
24636;DHT22;12772;49.794;10.024;2022-08-19T09:40:36;25.50;46.40
24636;DHT22;12772;49.794;10.024;2022-08-19T09:44:40;25.70;46.70
24636;DHT22;12772;49.794;10.024;2022-08-19T09:48:43;25.70;46.30
24636;DHT22;12772;49.794;10.024;2022-08-19T09:52:46;25.80;45.90
24636;DHT22;12772;49.794;10.024;2022-08-19T09:56:48;26.00;45.50
24636;DHT22;12772;49.794;10.024;2022-08-19T10:00:50;26.00;45.00
24636;DHT22;12772;49.794;10.024;2022-08-19T10:04:54;26.10;45.10
24636;DHT22;12772;49.794;10.024;2022-08-19T10:09:16;26.20;44.90
24636;DHT22;12772;49.794;10.024;2022-08-19T10:13:21;26.20;44.80
24636;DHT22;12772;49.794;10.024;2022-08-19T10:17:26;26.30;44.60
24636;DHT22;12772;49.794;10.024;2022-08-19T10:21:31;26.40;44.50
24636;DHT22;12772;49.794;10.024;2022-08-19T10:25:34;26.40;44.20
24636;DHT22;12772;49.794;10.024;2022-08-19T10:29:37;26.50;44.10
24636;DHT22;12772;49.794;10.024;2022-08-19T10:33:40;26.40;44.10
24636;DHT22;12772;49.794;10.024;2022-08-19T10:37:42;26.40;44.10
24636;DHT22;12772;49.794;10.024;2022-08-19T10:41:44;26.30;43.50
24636;DHT22;12772;49.794;10.024;2022-08-19T10:45:54;26.30;42.80
24636;DHT22;12772;49.794;10.024;2022-08-19T10:49:59;26.20;42.30
24636;DHT22;12772;49.794;10.024;2022-08-19T10:54:16;26.30;42.40
24636;DHT22;12772;49.794;10.024;2022-08-19T10:58:19;26.30;42.20
24636;DHT22;12772;49.794;10.024;2022-08-19T11:02:27;26.50;42.20
24636;DHT22;12772;49.794;10.024;2022-08-19T11:06:31;26.50;41.70
24636;DHT22;12772;49.794;10.024;2022-08-19T11:10:33;26.60;41.80
24636;DHT22;12772;49.794;10.024;2022-08-19T11:14:36;26.60;41.00
24636;DHT22;12772;49.794;10.024;2022-08-19T11:18:44;26.70;41.10
24636;DHT22;12772;49.794;10.024;2022-08-19T11:22:47;26.80;40.80
24636;DHT22;12772;49.794;10.024;2022-08-19T11:26:51;26.80;40.60
24636;DHT22;12772;49.794;10.024;2022-08-19T11:30:54;26.80;39.70
24636;DHT22;12772;49.794;10.024;2022-08-19T11:34:56;26.80;39.50
24636;DHT22;12772;49.794;10.024;2022-08-19T11:38:58;26.70;39.60
24636;DHT22;12772;49.794;10.024;2022-08-19T11:43:00;26.60;39.40
24636;DHT22;12772;49.794;10.024;2022-08-19T11:47:02;26.70;39.50
24636;DHT22;12772;49.794;10.024;2022-08-19T11:51:07;26.70;39.30
24636;DHT22;12772;49.794;10.024;2022-08-19T11:55:09;26.70;38.60
24636;DHT22;12772;49.794;10.024;2022-08-19T11:59:11;26.80;38.60
24636;DHT22;12772;49.794;10.024;2022-08-19T12:03:14;26.80;38.20
24636;DHT22;12772;49.794;10.024;2022-08-19T12:07:16;27.00;37.70
24636;DHT22;12772;49.794;10.024;2022-08-19T12:11:18;27.00;37.70
24636;DHT22;12772;49.794;10.024;2022-08-19T12:15:20;27.10;37.20
24636;DHT22;12772;49.794;10.024;2022-08-19T12:19:23;27.20;36.40
24636;DHT22;12772;49.794;10.024;2022-08-19T12:23:26;27.20;36.30
24636;DHT22;12772;49.794;10.024;2022-08-19T12:27:28;27.20;35.90
24636;DHT22;12772;49.794;10.024;2022-08-19T12:31:30;27.30;35.20
24636;DHT22;12772;49.794;10.024;2022-08-19T12:35:32;27.30;35.00
24636;DHT22;12772;49.794;10.024;2022-08-19T12:39:39;27.40;34.50
24636;DHT22;12772;49.794;10.024;2022-08-19T12:43:42;27.30;34.30
24636;DHT22;12772;49.794;10.024;2022-08-19T12:47:44;27.30;34.40
24636;DHT22;12772;49.794;10.024;2022-08-19T12:51:46;27.30;34.40
24636;DHT22;12772;49.794;10.024;2022-08-19T12:55:55;27.40;34.50
24636;DHT22;12772;49.794;10.024;2022-08-19T12:59:59;27.40;33.90
24636;DHT22;12772;49.794;10.024;2022-08-19T13:04:01;27.40;34.40
24636;DHT22;12772;49.794;10.024;2022-08-19T13:08:03;27.40;33.20
24636;DHT22;12772;49.794;10.024;2022-08-19T13:12:05;27.40;32.90
24636;DHT22;12772;49.794;10.024;2022-08-19T13:16:10;27.40;32.90
24636;DHT22;12772;49.794;10.024;2022-08-19T13:20:13;27.40;32.90
24636;DHT22;12772;49.794;10.024;2022-08-19T13:24:15;27.40;32.90
24636;DHT22;12772;49.794;10.024;2022-08-19T13:28:17;27.50;32.70
24636;DHT22;12772;49.794;10.024;2022-08-19T13:32:19;27.60;32.30
24636;DHT22;12772;49.794;10.024;2022-08-19T13:36:39;27.70;32.70
24636;DHT22;12772;49.794;10.024;2022-08-19T13:40:41;27.70;31.90
24636;DHT22;12772;49.794;10.024;2022-08-19T13:44:43;27.70;31.50
24636;DHT22;12772;49.794;10.024;2022-08-19T13:48:47;27.70;30.90
24636;DHT22;12772;49.794;10.024;2022-08-19T13:52:49;27.70;30.90
24636;DHT22;12772;49.794;10.024;2022-08-19T13:56:51;27.70;30.60
24636;DHT22;12772;49.794;10.024;2022-08-19T14:00:53;27.70;30.50
24636;DHT22;12772;49.794;10.024;2022-08-19T14:04:55;27.80;30.90
24636;DHT22;12772;49.794;10.024;2022-08-19T14:08:58;27.90;30.30
24636;DHT22;12772;49.794;10.024;2022-08-19T14:13:02;27.80;30.10
24636;DHT22;12772;49.794;10.024;2022-08-19T14:17:08;28.00;30.30
24636;DHT22;12772;49.794;10.024;2022-08-19T14:21:16;28.00;30.20
24636;DHT22;12772;49.794;10.024;2022-08-19T14:25:21;28.00;30.80
24636;DHT22;12772;49.794;10.024;2022-08-19T14:29:24;28.00;30.30
24636;DHT22;12772;49.794;10.024;2022-08-19T14:33:26;28.00;30.00
24636;DHT22;12772;49.794;10.024;2022-08-19T14:37:28;28.00;29.90
24636;DHT22;12772;49.794;10.024;2022-08-19T14:41:30;28.00;30.00
24636;DHT22;12772;49.794;10.024;2022-08-19T14:45:36;28.00;29.90
24636;DHT22;12772;49.794;10.024;2022-08-19T14:49:38;28.00;30.00
24636;DHT22;12772;49.794;10.024;2022-08-19T14:53:41;28.10;31.00
24636;DHT22;12772;49.794;10.024;2022-08-19T14:57:44;28.10;31.40
24636;DHT22;12772;49.794;10.024;2022-08-19T15:01:47;28.20;31.40
24636;DHT22;12772;49.794;10.024;2022-08-19T15:05:49;28.20;30.90
24636;DHT22;12772;49.794;10.024;2022-08-19T15:09:51;28.20;31.00
24636;DHT22;12772;49.794;10.024;2022-08-19T15:13:56;28.10;30.60
24636;DHT22;12772;49.794;10.024;2022-08-19T15:17:58;28.10;34.40
24636;DHT22;12772;49.794;10.024;2022-08-19T15:22:03;28.10;33.80
24636;DHT22;12772;49.794;10.024;2022-08-19T15:26:05;28.10;33.40
24636;DHT22;12772;49.794;10.024;2022-08-19T15:30:10;28.20;33.80
24636;DHT22;12772;49.794;10.024;2022-08-19T15:34:12;28.10;32.60
24636;DHT22;12772;49.794;10.024;2022-08-19T15:38:14;28.10;32.50
24636;DHT22;12772;49.794;10.024;2022-08-19T15:42:20;28.10;32.70
24636;DHT22;12772;49.794;10.024;2022-08-19T15:46:24;28.10;32.70
24636;DHT22;12772;49.794;10.024;2022-08-19T15:50:29;28.10;32.20
24636;DHT22;12772;49.794;10.024;2022-08-19T15:54:32;28.10;32.40
24636;DHT22;12772;49.794;10.024;2022-08-19T15:58:34;28.10;32.20
24636;DHT22;12772;49.794;10.024;2022-08-19T16:02:54;28.00;32.30
24636;DHT22;12772;49.794;10.024;2022-08-19T16:07:13;28.00;32.50
24636;DHT22;12772;49.794;10.024;2022-08-19T16:11:19;28.00;32.40
24636;DHT22;12772;49.794;10.024;2022-08-19T16:15:22;28.00;32.40
24636;DHT22;12772;49.794;10.024;2022-08-19T16:19:25;27.90;32.30
24636;DHT22;12772;49.794;10.024;2022-08-19T16:23:27;27.90;32.40
24636;DHT22;12772;49.794;10.024;2022-08-19T16:27:29;27.90;32.60
24636;DHT22;12772;49.794;10.024;2022-08-19T16:31:31;27.90;32.50
24636;DHT22;12772;49.794;10.024;2022-08-19T16:35:34;27.80;32.90
24636;DHT22;12772;49.794;10.024;2022-08-19T16:39:37;27.80;33.10
24636;DHT22;12772;49.794;10.024;2022-08-19T16:43:40;27.60;33.50
24636;DHT22;12772;49.794;10.024;2022-08-19T16:47:42;27.50;33.70
24636;DHT22;12772;49.794;10.024;2022-08-19T16:51:44;27.50;34.50
24636;DHT22;12772;49.794;10.024;2022-08-19T16:55:47;27.30;34.30
24636;DHT22;12772;49.794;10.024;2022-08-19T16:59:50;27.30;35.00
24636;DHT22;12772;49.794;10.024;2022-08-19T17:03:53;27.30;35.60
24636;DHT22;12772;49.794;10.024;2022-08-19T17:07:56;27.20;35.40
24636;DHT22;12772;49.794;10.024;2022-08-19T17:11:58;27.20;36.20
24636;DHT22;12772;49.794;10.024;2022-08-19T17:16:00;27.10;37.50
24636;DHT22;12772;49.794;10.024;2022-08-19T17:20:03;27.00;38.30
24636;DHT22;12772;49.794;10.024;2022-08-19T17:24:06;26.90;39.00
24636;DHT22;12772;49.794;10.024;2022-08-19T17:28:19;26.80;39.50
24636;DHT22;12772;49.794;10.024;2022-08-19T17:32:22;26.80;39.60
24636;DHT22;12772;49.794;10.024;2022-08-19T17:36:25;26.70;39.60
24636;DHT22;12772;49.794;10.024;2022-08-19T17:40:29;26.70;39.70
24636;DHT22;12772;49.794;10.024;2022-08-19T17:44:31;26.60;39.50
24636;DHT22;12772;49.794;10.024;2022-08-19T17:48:36;26.60;39.30
24636;DHT22;12772;49.794;10.024;2022-08-19T17:52:39;26.50;39.30
24636;DHT22;12772;49.794;10.024;2022-08-19T17:56:42;26.40;39.30
24636;DHT22;12772;49.794;10.024;2022-08-19T18:00:45;26.40;39.80
24636;DHT22;12772;49.794;10.024;2022-08-19T18:04:48;26.20;40.00
24636;DHT22;12772;49.794;10.024;2022-08-19T18:08:50;26.20;40.70
24636;DHT22;12772;49.794;10.024;2022-08-19T18:12:53;26.10;40.60
24636;DHT22;12772;49.794;10.024;2022-08-19T18:16:55;26.00;40.60
24636;DHT22;12772;49.794;10.024;2022-08-19T18:20:57;25.90;41.10
24636;DHT22;12772;49.794;10.024;2022-08-19T18:25:00;25.90;41.20
24636;DHT22;12772;49.794;10.024;2022-08-19T18:29:02;25.90;41.00
24636;DHT22;12772;49.794;10.024;2022-08-19T18:33:06;25.90;40.60
24636;DHT22;12772;49.794;10.024;2022-08-19T18:37:13;25.90;40.50
24636;DHT22;12772;49.794;10.024;2022-08-19T18:41:15;25.90;40.50
24636;DHT22;12772;49.794;10.024;2022-08-19T18:45:37;25.80;40.40
24636;DHT22;12772;49.794;10.024;2022-08-19T18:54:54;25.70;40.60
24636;DHT22;12772;49.794;10.024;2022-08-19T18:58:59;25.60;40.60
24636;DHT22;12772;49.794;10.024;2022-08-19T19:03:02;25.60;40.20
24636;DHT22;12772;49.794;10.024;2022-08-19T19:07:05;25.60;40.20
24636;DHT22;12772;49.794;10.024;2022-08-19T19:11:08;25.50;40.10
24636;DHT22;12772;49.794;10.024;2022-08-19T19:15:11;25.50;40.40
24636;DHT22;12772;49.794;10.024;2022-08-19T19:19:13;25.50;40.20
24636;DHT22;12772;49.794;10.024;2022-08-19T19:23:16;25.50;40.50
24636;DHT22;12772;49.794;10.024;2022-08-19T19:27:20;25.60;40.40
24636;DHT22;12772;49.794;10.024;2022-08-19T19:31:26;25.50;40.10
24636;DHT22;12772;49.794;10.024;2022-08-19T19:35:28;25.50;40.10
24636;DHT22;12772;49.794;10.024;2022-08-19T19:39:31;25.50;40.30
24636;DHT22;12772;49.794;10.024;2022-08-19T19:43:33;25.50;40.30
24636;DHT22;12772;49.794;10.024;2022-08-19T19:47:35;25.50;40.10
24636;DHT22;12772;49.794;10.024;2022-08-19T19:51:38;25.40;40.10
24636;DHT22;12772;49.794;10.024;2022-08-19T19:55:41;25.40;40.30
24636;DHT22;12772;49.794;10.024;2022-08-19T19:59:43;25.40;40.50
24636;DHT22;12772;49.794;10.024;2022-08-19T20:03:46;25.40;40.40
24636;DHT22;12772;49.794;10.024;2022-08-19T20:07:49;25.40;40.30
24636;DHT22;12772;49.794;10.024;2022-08-19T20:12:09;25.40;40.10
24636;DHT22;12772;49.794;10.024;2022-08-19T20:16:11;25.40;40.10
24636;DHT22;12772;49.794;10.024;2022-08-19T20:20:16;25.40;40.40
24636;DHT22;12772;49.794;10.024;2022-08-19T20:24:22;25.30;40.40
24636;DHT22;12772;49.794;10.024;2022-08-19T20:28:24;25.30;40.60
24636;DHT22;12772;49.794;10.024;2022-08-19T20:32:27;25.30;40.80
24636;DHT22;12772;49.794;10.024;2022-08-19T20:36:30;25.30;41.20
24636;DHT22;12772;49.794;10.024;2022-08-19T20:40:34;25.30;42.50
24636;DHT22;12772;49.794;10.024;2022-08-19T20:44:37;25.10;42.40
24636;DHT22;12772;49.794;10.024;2022-08-19T20:48:39;25.00;42.90
24636;DHT22;12772;49.794;10.024;2022-08-19T20:52:42;24.90;43.70
24636;DHT22;12772;49.794;10.024;2022-08-19T20:56:44;24.80;44.80
24636;DHT22;12772;49.794;10.024;2022-08-19T21:00:48;24.60;45.90
24636;DHT22;12772;49.794;10.024;2022-08-19T21:04:50;24.50;47.00
24636;DHT22;12772;49.794;10.024;2022-08-19T21:08:52;24.40;46.10
24636;DHT22;12772;49.794;10.024;2022-08-19T21:12:54;24.40;46.20
24636;DHT22;12772;49.794;10.024;2022-08-19T21:16:57;24.30;47.10
24636;DHT22;12772;49.794;10.024;2022-08-19T21:20:59;24.30;47.30
24636;DHT22;12772;49.794;10.024;2022-08-19T21:25:01;24.30;47.60
24636;DHT22;12772;49.794;10.024;2022-08-19T21:29:03;24.30;48.00
24636;DHT22;12772;49.794;10.024;2022-08-19T21:33:06;24.20;48.00
24636;DHT22;12772;49.794;10.024;2022-08-19T21:37:08;24.20;48.20
24636;DHT22;12772;49.794;10.024;2022-08-19T21:41:10;24.30;48.30
24636;DHT22;12772;49.794;10.024;2022-08-19T21:45:13;24.30;48.20
24636;DHT22;12772;49.794;10.024;2022-08-19T21:49:17;24.20;48.20
24636;DHT22;12772;49.794;10.024;2022-08-19T21:53:22;24.20;48.20
24636;DHT22;12772;49.794;10.024;2022-08-19T21:57:24;24.30;48.30
24636;DHT22;12772;49.794;10.024;2022-08-19T22:01:26;24.30;48.40
24636;DHT22;12772;49.794;10.024;2022-08-19T22:05:29;24.30;48.30
24636;DHT22;12772;49.794;10.024;2022-08-19T22:09:33;24.30;48.30
24636;DHT22;12772;49.794;10.024;2022-08-19T22:13:35;24.40;48.60
24636;DHT22;12772;49.794;10.024;2022-08-19T22:17:39;24.40;48.40
24636;DHT22;12772;49.794;10.024;2022-08-19T22:21:41;24.30;48.40
24636;DHT22;12772;49.794;10.024;2022-08-19T22:25:45;24.20;48.40
24636;DHT22;12772;49.794;10.024;2022-08-19T22:29:47;24.30;48.60
24636;DHT22;12772;49.794;10.024;2022-08-19T22:33:49;24.20;48.50
24636;DHT22;12772;49.794;10.024;2022-08-19T22:37:51;24.20;48.40
24636;DHT22;12772;49.794;10.024;2022-08-19T22:41:54;24.20;48.70
24636;DHT22;12772;49.794;10.024;2022-08-19T22:45:57;24.20;48.70
24636;DHT22;12772;49.794;10.024;2022-08-19T22:49:59;24.10;48.50
24636;DHT22;12772;49.794;10.024;2022-08-19T22:54:02;24.10;48.30
24636;DHT22;12772;49.794;10.024;2022-08-19T22:58:05;24.20;48.30
24636;DHT22;12772;49.794;10.024;2022-08-19T23:02:08;24.10;48.00
24636;DHT22;12772;49.794;10.024;2022-08-19T23:06:11;24.10;48.00
24636;DHT22;12772;49.794;10.024;2022-08-19T23:10:14;24.10;48.00
24636;DHT22;12772;49.794;10.024;2022-08-19T23:14:16;24.10;48.00
24636;DHT22;12772;49.794;10.024;2022-08-19T23:18:18;24.20;48.00
24636;DHT22;12772;49.794;10.024;2022-08-19T23:22:20;24.20;47.90
24636;DHT22;12772;49.794;10.024;2022-08-19T23:26:22;24.20;47.90
24636;DHT22;12772;49.794;10.024;2022-08-19T23:30:25;24.30;48.00
24636;DHT22;12772;49.794;10.024;2022-08-19T23:34:26;24.20;48.00
24636;DHT22;12772;49.794;10.024;2022-08-19T23:38:29;24.10;47.90
24636;DHT22;12772;49.794;10.024;2022-08-19T23:42:32;24.10;48.10
24636;DHT22;12772;49.794;10.024;2022-08-19T23:46:34;24.10;48.20
24636;DHT22;12772;49.794;10.024;2022-08-19T23:50:38;24.10;48.10
24636;DHT22;12772;49.794;10.024;2022-08-19T23:54:41;24.10;48.00
24636;DHT22;12772;49.794;10.024;2022-08-19T23:58:43;24.10;47.90
